Arundel, Maine
Current Conditions -  °F | °C
As of 5:55 PM on Thursday 18 Dec 2014 (Local Time) from KSFM Reporting Station
Few Clouds Few Clouds  
Wind Chill: 26°   Ceiling: Unl
Heat Index: 36°   Visibility: 10mi
Dew Point: 25°   Wind: 15mph
Humidity: 65%   Direction: 280°W
Pressure: 29.77"   Gusts: 22mph
Location:  43.4079°N, 70.4735°W
Report Text: KSFM 182255Z AUTO 28013G19KT 10SM FEW049 FEW060 02/M04 A2977 RMK AO1
Loading
Personal Weather Stations






























Interactive Weather Map New forecast layout! Learn more

10-Day Weather Forecast

Advertisements
Track Severe Weather on mobile